Disclaimer

Please do not use the information listed here in-flight or in-navigation, as they are not provided to us by the airports but are provided by volunteers, so they might be outdated.

Search


Regions


Airport information page

Radio informations:
Tower (TWR) - 122.1 MHz
OPS - 234.05 MHz
Ground (GND) - 396.85 MHz
Director (DIR) - 122.1 MHz
Automatic Terminal Information Service (ATIS) - 288.2 MHz
Approach (APP) - 122.1 MHz

Airport informations:
Latitude: 34° 35' 25.50" N
Longitude: 032° 59' 16.30" E
Elevation: 76 feet - 23 meters
Operating hours: Remarks
Operating agency: Military
Timezone: UTC+2(+3DT) - Last Sunday in March to last Sunday in October
Fuel: Jet A1+, Jet A1 with icing inhibitor.

Jet A1, without icing nhibitor.

Runway information:
10/28 - 8999 x 200 feet< - >2743 x 61 meters

Recent METARs:
LCRA 151750Z 06019KT CAVOK 17/11 Q1020 NOSIG
LCRA 151750Z 06019KT CAVOK 17/11 Q1020 NOSIG
LCRA 151850Z 06017KT CAVOK 17/11 Q1020 NOSIG

Airport on the map: